Time;durP1;ratioP1;P1;durP2;ratioP2;P2;SDS_P1;SDS_P2;PMS_P1;PMS_P2;Temp;Humidity;BMP_temperature;BMP_pressure;BME280_temperature;BME280_humidity;BME280_pressure;Samples;Min_cycle;Max_cycle;Signal;HPM_P1;HPM_P2
2023/12/26 00:01:58;;;;;;;;;;;;;;;7.30;100.00;99293.73;134264;1298;22509;-75
2023/12/26 00:05:04;;;;;;;7.40;3.90;;;;;;;7.30;100.00;99297.29;134295;1304;22372;-75
2023/12/26 00:08:06;;;;;;;8.00;4.70;;;;;;;7.30;100.00;99294.06;134317;1298;22434;-75
2023/12/26 00:11:07;;;;;;;10.20;5.10;;;;;;;7.31;100.00;99293.79;134382;1299;22375;-75
2023/12/26 00:14:16;;;;;;;;;;;;;;;7.31;100.00;99295.41;134294;1298;22448;-75
2023/12/26 00:17:20;;;;;;;6.60;4.50;;;;;;;7.30;100.00;99295.31;134349;1297;23221;-75
2023/12/26 00:20:21;;;;;;;7.30;4.50;;;;;;;7.30;100.00;99294.06;134255;1298;22981;-74
2023/12/26 00:23:22;;;;;;;8.40;4.30;;;;;;;7.30;100.00;99290.94;134367;1298;22426;-75
2023/12/26 00:26:23;;;;;;;6.70;4.60;;;;;;;7.31;100.00;99292.77;134277;1304;22241;-75
2023/12/26 00:29:25;;;;;;;14.30;5.60;;;;;;;7.30;100.00;99291.71;134395;1304;22274;-74
2023/12/26 00:32:33;;;;;;;13.00;6.40;;;;;;;7.31;100.00;99292.54;134327;1288;23190;-75
2023/12/26 00:35:34;;;;;;;11.00;5.90;;;;;;;7.33;100.00;99279.87;134192;1301;22415;-74
2023/12/26 00:38:35;;;;;;;10.90;5.50;;;;;;;7.34;100.00;99277.23;134325;1288;22317;-75
2023/12/26 00:41:38;;;;;;;;;;;;;;;7.38;100.00;99270.27;134357;1304;23110;-74
2023/12/26 00:44:40;;;;;;;8.60;4.10;;;;;;;7.43;100.00;99260.67;134286;1304;22352;-74
2023/12/26 00:47:41;;;;;;;7.10;4.10;;;;;;;7.47;100.00;99252.93;134283;1298;22485;-75
2023/12/26 00:50:42;;;;;;;7.80;3.80;;;;;;;7.51;100.00;99259.89;134273;1298;22382;-74
2023/12/26 00:53:46;;;;;;;7.30;4.50;;;;;;;7.56;100.00;99267.64;134255;1298;22510;-74
2023/12/26 00:56:50;;;;;;;8.40;4.30;;;;;;;7.60;100.00;99263.01;134278;1298;23138;-75
2023/12/26 00:59:53;;;;;;;5.80;3.50;;;;;;;7.63;100.00;99257.32;134196;1304;22277;-74
2023/12/26 01:02:56;;;;;;;7.50;4.00;;;;;;;7.66;100.00;99252.63;134260;1298;23041;-74
2023/12/26 01:06:03;;;;;;;8.10;4.30;;;;;;;7.69;100.00;99257.84;134268;1304;22366;-75
2023/12/26 01:09:13;;;;;;;6.50;4.50;;;;;;;7.70;100.00;99255.40;134129;1304;22510;-75
2023/12/26 01:12:14;;;;;;;7.60;4.60;;;;;;;7.72;100.00;99252.38;134290;1304;22366;-74
2023/12/26 01:15:16;;;;;;;6.90;4.10;;;;;;;7.73;100.00;99249.44;134267;1283;22434;-75
2023/12/26 01:18:20;;;;;;;6.70;3.80;;;;;;;7.74;100.00;99245.61;134287;1298;22415;-75
2023/12/26 01:21:34;;;;;;;;;;;;;;;;;;;;;
2023/12/26 01:25:05;;;;;;;7.20;3.50;;;;;;;7.80;100.00;99234.80;134274;1298;22470;-75
2023/12/26 01:28:26;;;;;;;6.20;3.40;;;;;;;7.81;100.00;99234.79;134349;1304;22428;-74
2023/12/26 01:31:33;;;;;;;5.50;3.40;;;;;;;7.82;100.00;99229.02;134299;1298;22627;-75
2023/12/26 01:34:34;;;;;;;4.30;2.80;;;;;;;7.86;100.00;99222.83;134124;1305;22558;-74
2023/12/26 01:37:35;;;;;;;6.60;3.20;;;;;;;7.89;100.00;99221.75;134275;1305;23326;-75
2023/12/26 01:40:48;;;;;;;4.50;2.90;;;;;;;7.91;100.00;99224.55;134228;1304;22247;-75
2023/12/26 01:43:49;;;;;;;6.70;3.00;;;;;;;7.93;100.00;99223.33;134094;1305;22419;-75
2023/12/26 01:46:54;;;;;;;4.80;3.00;;;;;;;7.95;100.00;99225.70;134276;1305;23049;-75
2023/12/26 01:50:25;;;;;;;3.90;2.50;;;;;;;7.98;100.00;99217.89;134126;1300;22463;-74
2023/12/26 01:53:25;;;;;;;3.80;2.70;;;;;;;8.02;100.00;99213.41;134283;1304;23209;-75
2023/12/26 01:56:26;;;;;;;3.60;2.50;;;;;;;8.04;100.00;99205.38;134236;1298;23502;-74
2023/12/26 01:59:27;;;;;;;4.40;2.30;;;;;;;8.06;100.00;99199.92;134114;1304;22415;-75
2023/12/26 02:02:29;;;;;;;3.10;2.20;;;;;;;8.07;100.00;99195.18;134258;1304;22431;-74
2023/12/26 02:05:30;;;;;;;4.60;2.30;;;;;;;8.09;100.00;99189.69;134322;1304;22375;-75
2023/12/26 02:08:34;;;;;;;2.80;2.10;;;;;;;8.11;100.00;99189.23;134232;1304;22342;-74
2023/12/26 02:11:37;;;;;;;3.60;2.20;;;;;;;8.12;100.00;99184.02;134234;1298;22496;-74
2023/12/26 02:14:47;;;;;;;5.50;2.40;;;;;;;8.13;100.00;99179.67;134152;1295;23222;-75
2023/12/26 02:18:05;;;;;;;4.10;2.70;;;;;;;8.14;100.00;99175.06;134206;1305;22223;-74
2023/12/26 02:21:06;;;;;;;4.40;2.60;;;;;;;8.18;100.00;99175.91;134178;1298;22372;-74
2023/12/26 02:24:18;;;;;;;;;;;;;;;;;;;;;
2023/12/26 02:27:36;;;;;;;4.40;2.30;;;;;;;8.24;100.00;99169.89;134199;1304;22389;-74
2023/12/26 02:30:38;;;;;;;2.90;2.10;;;;;;;8.26;100.00;99160.66;134151;1304;23125;-74
2023/12/26 02:33:49;;;;;;;2.40;1.90;;;;;;;8.29;100.00;99156.97;134214;1304;22437;-74
2023/12/26 02:37:01;;;;;;;3.00;1.80;;;;;;;8.32;100.00;99152.39;134218;1301;22426;-74
2023/12/26 02:40:03;;;;;;;4.00;2.20;;;;;;;8.34;100.00;99143.80;134196;1304;23056;-74
2023/12/26 02:43:04;;;;;;;2.90;2.30;;;;;;;8.34;100.00;99140.36;134154;1301;22365;-75
2023/12/26 02:46:33;;;;;;;2.50;1.70;;;;;;;8.36;100.00;99136.70;134187;1301;22429;-75
2023/12/26 02:49:52;;;;;;;2.70;1.90;;;;;;;8.38;100.00;99136.26;134151;1301;22230;-75
2023/12/26 02:53:09;;;;;;;;;;;;;;;;;;;;;
2023/12/26 02:56:15;;;;;;;1.90;1.80;;;;;;;8.39;100.00;99128.59;134166;1302;22212;-75
2023/12/26 02:59:16;;;;;;;2.60;1.80;;;;;;;8.41;100.00;99127.48;134246;1304;22376;-74
2023/12/26 03:02:30;;;;;;;2.30;1.50;;;;;;;8.43;100.00;99128.46;134186;1304;22224;-75
2023/12/26 03:05:55;;;;;;;2.20;1.70;;;;;;;8.44;100.00;99126.27;134195;1304;22211;-75
2023/12/26 03:09:06;;;;;;;1.90;1.50;;;;;;;8.45;100.00;99116.95;134220;1301;22356;-74
2023/12/26 03:12:07;;;;;;;2.00;1.50;;;;;;;8.45;100.00;99107.23;134271;1304;22804;-75
2023/12/26 03:15:15;;;;;;;1.60;1.40;;;;;;;8.45;100.00;99098.94;134263;1298;22315;-75
2023/12/26 03:18:42;;;;;;;1.50;1.40;;;;;;;8.46;100.00;99089.55;134257;1304;22259;-75
2023/12/26 03:21:43;;;;;;;1.90;1.70;;;;;;;8.46;100.00;99090.92;134261;1304;22374;-74
2023/12/26 03:24:45;;;;;;;3.90;1.80;;;;;;;8.47;100.00;99087.33;134227;1304;23152;-74
2023/12/26 03:27:48;;;;;;;2.90;1.40;;;;;;;8.48;100.00;99087.39;134255;1304;22342;-72
2023/12/26 03:30:53;;;;;;;1.50;1.40;;;;;;;8.49;100.00;99082.27;134239;1305;22355;-72
2023/12/26 03:33:55;;;;;;;1.60;1.50;;;;;;;8.51;100.00;99075.40;134255;1301;22388;-72
2023/12/26 03:36:56;;;;;;;4.60;1.60;;;;;;;8.52;100.00;99069.71;134249;1305;22372;-72
2023/12/26 03:39:59;;;;;;;1.60;1.50;;;;;;;8.55;100.00;99065.57;134145;1298;22259;-72
2023/12/26 03:42:59;;;;;;;2.00;1.40;;;;;;;8.56;100.00;99069.16;134263;1304;22370;-72
2023/12/26 03:46:03;;;;;;;1.40;1.30;;;;;;;8.58;100.00;99068.26;134278;1301;22882;-72
2023/12/26 03:49:04;;;;;;;1.90;1.40;;;;;;;8.61;100.00;99073.39;134237;1305;22391;-72
2023/12/26 03:52:04;;;;;;;2.00;1.00;;;;;;;8.63;99.98;99073.35;134292;1298;22554;-72
2023/12/26 03:55:06;;;;;;;1.40;1.30;;;;;;;8.63;99.99;99066.73;134259;1298;23113;-74
2023/12/26 03:58:09;;;;;;;1.40;1.30;;;;;;;8.64;100.00;99062.24;134288;1295;22343;-75
2023/12/26 04:01:12;;;;;;;1.50;1.40;;;;;;;8.64;100.00;99051.84;134132;1305;22446;-74
2023/12/26 04:04:12;;;;;;;3.10;1.60;;;;;;;8.66;100.00;99047.59;134165;1304;22891;-75
2023/12/26 04:07:13;;;;;;;1.60;1.20;;;;;;;8.66;100.00;99045.27;134260;1304;22469;-74
2023/12/26 04:10:20;;;;;;;2.90;1.20;;;;;;;8.66;100.00;99046.09;134070;1304;22493;-75
2023/12/26 04:13:21;;;;;;;1.90;0.90;;;;;;;8.66;100.00;99045.37;134119;1304;22245;-74
2023/12/26 04:16:28;;;;;;;1.90;1.10;;;;;;;8.66;100.00;99040.59;134271;1304;22516;-75
2023/12/26 04:19:28;;;;;;;1.40;1.10;;;;;;;8.66;100.00;99035.31;134093;1302;22449;-74
2023/12/26 04:22:29;;;;;;;1.70;1.00;;;;;;;8.67;100.00;99034.19;134273;1304;22391;-75
2023/12/26 04:25:30;;;;;;;2.10;0.90;;;;;;;8.69;100.00;99033.00;134136;1304;22268;-74
2023/12/26 04:28:31;;;;;;;;;;;;;;;8.72;100.00;99030.90;134167;1304;22476;-74
2023/12/26 04:31:32;;;;;;;1.00;1.00;;;;;;;8.74;100.00;99022.54;134281;1302;22590;-74
2023/12/26 04:34:32;;;;;;;0.70;0.70;;;;;;;8.76;100.00;99025.17;134080;1304;22286;-74
2023/12/26 04:37:33;;;;;;;1.00;0.80;;;;;;;8.79;99.95;99017.44;134257;1304;22432;-74
2023/12/26 04:40:44;;;;;;;1.10;1.00;;;;;;;8.81;99.95;99006.80;134276;1302;22252;-75
2023/12/26 04:43:45;;;;;;;0.90;0.90;;;;;;;8.83;99.86;98997.23;134084;1304;22453;-75
2023/12/26 04:46:51;;;;;;;0.50;0.50;;;;;;;8.85;99.70;98998.96;134259;1304;22426;-74
2023/12/26 04:49:54;;;;;;;1.00;0.80;;;;;;;8.88;99.42;98995.15;134243;1304;22339;-74
2023/12/26 04:52:55;;;;;;;0.70;0.70;;;;;;;8.92;99.22;98981.17;134153;1305;22260;-74
2023/12/26 04:56:03;;;;;;;0.60;0.50;;;;;;;8.95;98.97;98975.69;134095;1301;22369;-74
2023/12/26 04:59:06;;;;;;;0.90;0.80;;;;;;;8.98;98.77;98975.30;134084;1301;22482;-75
2023/12/26 05:02:12;;;;;;;0.60;0.60;;;;;;;9.02;98.50;98977.20;134054;1304;22252;-74
2023/12/26 05:05:24;;;;;;;0.70;0.70;;;;;;;9.04;98.29;98982.32;134276;1305;22429;-74
2023/12/26 05:08:33;;;;;;;0.50;0.50;;;;;;;9.07;98.12;98977.11;134278;1301;22459;-74
2023/12/26 05:11:39;;;;;;;0.60;0.60;;;;;;;9.09;98.05;98975.62;134116;1305;22309;-74
2023/12/26 05:15:08;;;;;;;0.60;0.60;;;;;;;9.12;97.66;98978.59;134266;1304;22383;-74
2023/12/26 05:18:09;;;;;;;0.80;0.80;;;;;;;9.16;97.38;98984.55;134143;1304;136032;-74
2023/12/26 05:21:21;;;;;;;0.80;0.60;;;;;;;9.18;97.30;98981.76;134095;1304;22426;-74
2023/12/26 05:24:23;;;;;;;0.70;0.60;;;;;;;9.19;96.99;98980.19;134078;1299;23162;-74
2023/12/26 05:27:27;;;;;;;0.60;0.60;;;;;;;9.20;96.70;98982.84;134108;1305;23229;-74
2023/12/26 05:30:31;;;;;;;1.30;0.80;;;;;;;9.22;96.40;98976.27;134251;1298;22446;-74
2023/12/26 05:33:35;;;;;;;1.70;0.60;;;;;;;9.23;96.45;98979.89;134065;1305;22455;-75
2023/12/26 05:36:38;;;;;;;0.60;0.60;;;;;;;9.23;96.33;98981.24;134135;1298;22247;-75
2023/12/26 05:39:42;;;;;;;0.70;0.70;;;;;;;9.24;96.14;98976.25;134289;1304;22439;-75
2023/12/26 05:42:43;;;;;;;0.70;0.70;;;;;;;9.26;96.02;98980.63;134099;1304;22297;-74
2023/12/26 05:45:43;;;;;;;;;;;;;;;9.27;95.88;98976.45;134255;1298;22501;-75
2023/12/26 05:48:44;;;;;;;0.70;0.70;;;;;;;9.29;95.73;98974.43;134057;1304;22463;-74
2023/12/26 05:51:45;;;;;;;0.70;0.70;;;;;;;9.31;95.33;98979.96;134059;1304;23025;-75
2023/12/26 05:54:46;;;;;;;;;;;;;;;9.35;95.29;98988.15;134160;1301;22723;-75
2023/12/26 05:57:50;;;;;;;0.90;0.60;;;;;;;9.36;95.03;98987.46;134167;1298;23495;-74
2023/12/26 06:01:07;;;;;;;;;;;;;;;;;;;;;
2023/12/26 06:04:17;;;;;;;0.60;0.50;;;;;;;9.40;94.67;98992.77;134143;1304;22398;-74
2023/12/26 06:07:39;;;;;;;0.50;0.50;;;;;;;9.43;94.56;98993.30;134131;1305;22372;-74
2023/12/26 06:10:43;;;;;;;0.70;0.70;;;;;;;9.44;94.44;98994.11;133916;1305;22478;-74
2023/12/26 06:14:12;;;;;;;0.70;0.60;;;;;;;9.43;94.49;98992.60;134030;1305;22270;-74
2023/12/26 06:17:13;;;;;;;0.80;0.70;;;;;;;9.44;94.47;98992.69;134060;1306;22404;-74
2023/12/26 06:20:24;;;;;;;0.60;0.60;;;;;;;9.43;94.46;98996.38;134119;1298;22377;-74
2023/12/26 06:23:26;;;;;;;1.60;0.70;;;;;;;9.41;94.74;99000.31;134113;1306;22463;-74
2023/12/26 06:26:30;;;;;;;0.80;0.80;;;;;;;9.36;94.82;99000.14;134095;1304;22419;-74
2023/12/26 06:30:13;;;;;;;;;;;;;;;;;;;;;
2023/12/26 06:33:16;;;;;;;0.70;0.70;;;;;;;9.34;95.15;99000.80;134098;1298;22226;-74
2023/12/26 06:36:27;;;;;;;0.80;0.60;;;;;;;9.34;95.35;99009.02;133888;1305;22375;-74
2023/12/26 06:39:32;;;;;;;0.80;0.80;;;;;;;9.32;95.45;99012.31;133903;1302;22592;-75
2023/12/26 06:42:42;;;;;;;1.10;0.80;;;;;;;9.31;95.54;99010.38;133898;1304;22332;-74
2023/12/26 06:45:55;;;;;;;2.30;1.30;;;;;;;9.30;95.70;99012.40;134062;1305;22372;-74
2023/12/26 06:49:23;;;;;;;2.30;1.70;;;;;;;9.30;95.83;99009.59;133900;1298;22426;-74
2023/12/26 06:52:24;;;;;;;1.70;1.60;;;;;;;9.28;95.89;99000.16;133911;1305;22493;-74
2023/12/26 06:55:25;;;;;;;1.90;1.50;;;;;;;9.27;95.96;98997.98;134095;1298;22262;-74
2023/12/26 06:58:46;;;;;;;1.00;1.00;;;;;;;9.26;96.06;98997.49;134109;1298;22418;-75
2023/12/26 07:01:50;;;;;;;0.90;0.90;;;;;;;9.25;96.01;98999.92;134095;1305;23172;-75
2023/12/26 07:04:56;;;;;;;0.90;0.90;;;;;;;9.23;96.00;99005.61;134084;1303;22382;-75
2023/12/26 07:08:27;;;;;;;;;;;;;;;;;;;;;
2023/12/26 07:12:00;;;;;;;0.90;0.80;;;;;;;9.20;95.97;99017.08;134064;1304;22410;-78
2023/12/26 07:15:11;;;;;;;1.00;1.00;;;;;;;9.20;96.16;99026.65;134272;1298;22254;-80
2023/12/26 07:18:14;;;;;;;1.20;1.10;;;;;;;9.20;96.22;99020.99;134167;1298;22431;-78
2023/12/26 07:21:21;;;;;;;2.30;1.10;;;;;;;9.20;96.06;99022.34;134251;1298;23020;-74
2023/12/26 07:24:34;;;;;;;1.60;1.20;;;;;;;9.19;95.96;99028.64;134236;1298;23247;-75
2023/12/26 07:27:35;;;;;;;1.20;1.10;;;;;;;9.19;96.01;99029.21;134289;1298;22500;-76
2023/12/26 07:30:39;;;;;;;1.10;1.00;;;;;;;9.21;96.04;99036.77;134237;1304;23063;-75
2023/12/26 07:33:39;;;;;;;2.30;1.30;;;;;;;9.23;96.09;99036.57;134252;1298;22394;-77
2023/12/26 07:36:40;;;;;;;;;;;;;;;9.24;95.91;99046.06;134275;1301;22477;-76
2023/12/26 07:39:56;;;;;;;2.00;1.00;;;;;;;9.25;95.90;99042.77;134235;1298;22359;-77
2023/12/26 07:43:13;;;;;;;1.10;1.00;;;;;;;9.27;95.74;99041.89;134258;1304;22458;-81
2023/12/26 07:46:22;;;;;;;1.10;1.00;;;;;;;9.28;95.81;99049.69;134142;1298;22377;-81
2023/12/26 07:49:29;;;;;;;2.50;1.90;;;;;;;9.29;95.69;99051.69;134274;1304;22398;-81
2023/12/26 07:52:30;;;;;;;1.70;1.30;;;;;;;9.31;95.74;99053.21;134257;1298;22991;-81
2023/12/26 07:56:14;;;;;;;2.90;1.60;;;;;;;9.32;95.49;99060.65;134273;1298;22307;-81
2023/12/26 07:59:15;;;;;;;2.10;1.70;;;;;;;9.36;95.29;99066.85;134280;1298;22351;-82
2023/12/26 08:02:16;;;;;;;5.40;3.10;;;;;;;9.38;95.00;99070.50;134202;1299;23144;-81
2023/12/26 08:05:26;;;;;;;6.10;3.60;;;;;;;9.41;94.87;99073.38;134247;1298;22423;-79
2023/12/26 08:08:46;;;;;;;2.60;2.00;;;;;;;9.44;94.72;99077.78;134206;1298;22196;-83
2023/12/26 08:11:59;;;;;;;3.70;1.60;;;;;;;9.46;94.64;99082.48;134292;1298;22418;-84
2023/12/26 08:15:14;;;;;;;;;;;;;;;;;;;;;
2023/12/26 08:18:18;;;;;;;1.80;1.40;;;;;;;9.51;94.35;99087.77;134244;1298;22253;-84
2023/12/26 08:21:22;;;;;;;1.30;1.00;;;;;;;9.52;94.15;99092.66;134302;1298;22435;-89
2023/12/26 08:24:23;;;;;;;;;;;;;;;9.55;93.89;99096.94;134302;1304;23185;-87
2023/12/26 08:27:24;;;;;;;1.40;1.20;;;;;;;9.57;93.83;99100.52;134309;1298;23130;-85
2023/12/26 08:30:24;;;;;;;1.20;1.10;;;;;;;9.60;93.58;99108.36;134072;1298;22366;-85
2023/12/26 08:33:25;;;;;;;;;;;;;;;9.61;93.43;99112.77;134094;1296;23190;-87
2023/12/26 08:36:26;;;;;;;1.60;1.40;;;;;;;9.63;93.40;99116.81;134267;1288;22423;-87
2023/12/26 08:39:26;;;;;;;1.40;1.10;;;;;;;9.66;92.98;99118.80;134268;1298;22375;-87
2023/12/26 08:43:04;;;;;;;2.80;1.60;;;;;;;9.67;92.93;99123.33;134246;1298;22369;-87
2023/12/26 08:46:19;;;;;;;;;;;;;;;;;;;;;
2023/12/26 08:49:44;;;;;;;3.50;1.60;;;;;;;9.69;93.00;99139.21;134310;1296;23283;-88
2023/12/26 08:53:02;;;;;;;2.80;2.20;;;;;;;9.70;92.71;99145.09;134306;1304;22421;-87
2023/12/26 08:56:26;;;;;;;2.70;1.90;;;;;;;9.74;92.33;99143.42;134265;1297;22374;-87
2023/12/26 08:59:43;;;;;;;3.00;1.80;;;;;;;9.76;91.97;99150.51;134317;1304;22387;-88
2023/12/26 09:03:07;;;;;;;2.30;1.30;;;;;;;9.82;91.54;99154.95;134251;1298;22412;-86
2023/12/26 09:06:14;;;;;;;3.40;1.40;;;;;;;9.87;91.36;99158.55;134312;1298;22420;-88
2023/12/26 09:09:17;;;;;;;1.20;1.10;;;;;;;9.95;90.50;99166.11;134198;1304;22656;-87
2023/12/26 09:12:20;;;;;;;1.30;1.20;;;;;;;10.04;90.17;99174.03;134183;1298;23256;-86
2023/12/26 09:16:27;;;;;;;1.30;1.20;;;;;;;10.08;89.16;99180.52;134055;1298;22372;-88
2023/12/26 09:19:14;;;;;;;2.00;1.60;;;;;;;10.15;88.53;99172.92;133912;1304;22446;-87
2023/12/26 09:22:15;;;;;;;;;;;;;;;10.19;88.28;99184.04;134177;1298;23205;-82
2023/12/26 09:26:00;;;;;;;1.70;1.40;;;;;;;10.20;88.42;99190.08;134231;1301;22440;-83
2023/12/26 09:29:03;;;;;;;2.80;1.40;;;;;;;10.20;87.85;99186.02;134268;1297;22426;-85
2023/12/26 09:32:07;;;;;;;3.30;1.60;;;;;;;10.22;87.68;99192.19;134209;1298;22442;-84
2023/12/26 09:35:08;;;;;;;2.50;1.50;;;;;;;10.22;87.53;99197.21;134259;1298;22412;-84
2023/12/26 09:38:23;;;;;;;2.30;1.80;;;;;;;10.24;87.32;99195.47;134222;1298;23200;-85
2023/12/26 09:41:26;;;;;;;2.40;1.70;;;;;;;10.25;86.90;99188.55;134233;1304;22822;-85
2023/12/26 09:44:27;;;;;;;1.80;1.50;;;;;;;10.26;87.12;99191.10;134238;1301;22295;-80
2023/12/26 09:47:30;;;;;;;2.60;2.00;;;;;;;10.27;86.39;99194.50;133949;1297;22525;-81
2023/12/26 09:50:31;;;;;;;2.50;1.50;;;;;;;10.28;86.33;99196.70;134200;1298;22223;-80
2023/12/26 09:53:40;;;;;;;1.80;1.70;;;;;;;10.29;86.33;99201.55;134221;1298;22998;-80
2023/12/26 09:56:49;;;;;;;2.70;1.50;;;;;;;10.29;85.66;99196.29;134204;1304;22388;-80
2023/12/26 09:59:51;;;;;;;1.80;1.30;;;;;;;10.30;85.84;99203.48;134100;1298;22278;-80
2023/12/26 10:02:53;;;;;;;2.50;1.50;;;;;;;10.33;85.35;99197.96;134244;1304;22555;-81
2023/12/26 10:05:57;;;;;;;1.60;1.30;;;;;;;10.36;84.71;99202.13;134213;1298;22368;-81
2023/12/26 10:08:58;;;;;;;1.40;1.20;;;;;;;10.42;83.90;99203.56;134260;1298;22219;-80
2023/12/26 10:11:58;;;;;;;2.10;1.30;;;;;;;10.47;84.11;99209.65;134290;1298;22370;-80
2023/12/26 10:15:09;;;;;;;1.70;1.30;;;;;;;10.51;82.78;99213.67;134294;1298;22461;-80
2023/12/26 10:18:14;;;;;;;1.30;1.20;;;;;;;10.57;82.34;99222.58;134082;1297;22473;-80
2023/12/26 10:21:15;;;;;;;1.20;1.10;;;;;;;10.63;82.00;99228.52;134080;1298;22544;-80
2023/12/26 10:24:21;;;;;;;2.10;1.30;;;;;;;10.67;81.47;99221.48;134287;1289;22204;-83
2023/12/26 10:27:25;;;;;;;1.40;0.90;;;;;;;10.72;81.08;99225.70;134300;1294;22357;-80
2023/12/26 10:30:26;;;;;;;1.60;1.40;;;;;;;10.75;80.23;99231.16;134278;1298;22433;-81
2023/12/26 10:33:27;;;;;;;2.00;1.70;;;;;;;10.77;80.41;99240.38;134302;1298;22453;-78
2023/12/26 10:36:28;;;;;;;;;;;;;;;10.79;80.11;99242.30;134286;1304;22500;-79
2023/12/26 10:39:38;;;;;;;;;;;;;;;10.79;80.59;99246.17;134285;1304;22483;-78
2023/12/26 10:42:39;;;;;;;2.00;1.10;;;;;;;10.79;79.62;99242.84;134288;1301;22467;-78
2023/12/26 10:45:50;;;;;;;1.90;1.30;;;;;;;10.82;79.29;99241.92;134164;1297;22445;-80
2023/12/26 10:48:54;;;;;;;2.90;1.50;;;;;;;10.84;78.39;99248.59;134275;1298;22259;-77
2023/12/26 10:52:01;;;;;;;1.00;0.90;;;;;;;10.87;78.66;99248.38;134282;1297;22926;-78
2023/12/26 10:55:04;;;;;;;1.40;1.10;;;;;;;10.90;78.81;99252.61;134115;1298;22257;-77
2023/12/26 10:58:05;;;;;;;1.60;1.10;;;;;;;10.92;78.63;99255.73;134279;1298;22480;-79
2023/12/26 11:01:34;;;;;;;3.40;2.70;;;;;;;10.92;78.84;99265.78;134290;1298;22363;-77
2023/12/26 11:04:45;;;;;;;1.70;1.20;;;;;;;10.91;78.19;99266.11;134291;1304;22394;-77
2023/12/26 11:07:49;;;;;;;1.50;0.90;;;;;;;10.87;78.07;99271.65;134281;1304;22942;-75
2023/12/26 11:10:57;;;;;;;2.60;1.10;;;;;;;10.80;78.69;99285.18;134266;1298;22458;-75
2023/12/26 11:13:58;;;;;;;1.40;1.00;;;;;;;10.73;78.00;99289.35;134269;1298;22425;-74
2023/12/26 11:16:59;;;;;;;2.90;1.20;;;;;;;10.67;78.63;99310.50;134310;1298;22209;-74
2023/12/26 11:20:00;;;;;;;;;;;;;;;10.52;79.95;99344.45;134234;1298;22478;-75
2023/12/26 11:23:01;;;;;;;2.00;1.00;;;;;;;10.17;80.13;99362.25;134286;1298;22848;-75
2023/12/26 11:26:08;;;;;;;0.80;0.80;;;;;;;9.81;80.80;99369.29;134275;1298;22825;-76
2023/12/26 11:29:10;;;;;;;1.40;0.80;;;;;;;9.54;81.66;99371.29;134293;1297;22888;-81
2023/12/26 11:32:12;;;;;;;2.30;1.00;;;;;;;9.35;82.50;99368.52;134235;1295;22373;-76
2023/12/26 11:35:12;;;;;;;1.50;0.80;;;;;;;9.24;82.77;99380.02;134256;1298;22386;-76
2023/12/26 11:38:15;;;;;;;2.70;1.10;;;;;;;9.19;83.30;99382.30;134265;1298;22430;-76
2023/12/26 11:41:19;;;;;;;3.30;1.40;;;;;;;9.16;83.93;99386.39;134025;1298;23049;-75
2023/12/26 11:44:20;;;;;;;2.60;1.00;;;;;;;9.14;83.97;99389.39;134252;1298;22291;-75
2023/12/26 11:47:21;;;;;;;1.50;1.40;;;;;;;9.15;84.03;99389.00;134237;1298;22472;-76
2023/12/26 11:50:22;;;;;;;3.80;1.80;;;;;;;9.13;84.11;99396.92;134270;1290;22191;-75
2023/12/26 11:53:23;;;;;;;3.00;1.90;;;;;;;9.10;83.66;99395.89;134258;1298;22380;-75
2023/12/26 11:56:23;;;;;;;2.30;1.50;;;;;;;9.09;83.72;99399.86;134264;1298;22234;-75
2023/12/26 11:59:24;;;;;;;;;;;;;;;9.08;83.52;99396.16;134265;1300;22448;-75
2023/12/26 12:02:25;;;;;;;3.70;1.70;;;;;;;9.05;83.12;99391.48;134282;1298;23140;-75
2023/12/26 12:05:25;;;;;;;;;;;;;;;9.05;82.37;99390.78;134268;1298;22511;-75
2023/12/26 12:08:26;;;;;;;2.70;1.50;;;;;;;9.05;82.21;99396.44;134235;1304;22370;-76
2023/12/26 12:11:27;;;;;;;1.70;1.30;;;;;;;9.05;81.73;99395.39;134248;1298;23568;-75
2023/12/26 12:14:27;;;;;;;;;;;;;;;9.09;81.51;99397.60;134284;1297;22595;-76
2023/12/26 12:17:28;;;;;;;3.90;1.30;;;;;;;9.12;80.65;99391.64;134239;1298;22354;-76
2023/12/26 12:20:29;;;;;;;1.60;0.90;;;;;;;9.12;80.66;99396.56;134250;1298;23500;-76
2023/12/26 12:23:29;;;;;;;;;;;;;;;9.11;80.40;99394.73;134273;1298;22564;-77
2023/12/26 12:27:05;;;;;;;2.50;1.40;;;;;;;9.11;80.74;99401.60;134257;1304;22360;-77
2023/12/26 12:30:06;;;;;;;3.50;1.40;;;;;;;9.10;79.89;99405.58;134227;1298;22433;-77
2023/12/26 12:33:22;;;;;;;;;;;;;;;9.10;79.65;99404.00;134271;1301;22486;-75
2023/12/26 12:36:24;;;;;;;1.70;0.90;;;;;;;9.08;80.00;99405.32;134255;1298;22655;-75
2023/12/26 12:39:27;;;;;;;1.90;1.00;;;;;;;9.05;79.79;99416.91;134268;1298;22334;-74
2023/12/26 12:42:29;;;;;;;2.20;1.00;;;;;;;9.02;79.33;99409.36;134265;1288;22561;-75
2023/12/26 12:45:30;;;;;;;2.00;1.10;;;;;;;9.00;79.25;99406.77;134247;1297;22487;-74
2023/12/26 12:48:30;;;;;;;;;;;;;;;8.94;79.00;99408.16;134287;1298;22502;-74
2023/12/26 12:51:51;;;;;;;1.90;1.10;;;;;;;8.86;78.92;99408.09;134232;1298;22241;-75
2023/12/26 12:55:03;;;;;;;2.70;1.30;;;;;;;8.80;79.59;99419.55;134256;1298;23411;-74
2023/12/26 12:58:03;;;;;;;1.90;1.30;;;;;;;8.78;79.73;99415.77;134267;1298;22392;-74
2023/12/26 13:01:04;;;;;;;2.90;1.40;;;;;;;8.78;80.12;99417.84;134250;1298;22229;-74
2023/12/26 13:04:05;;;;;;;2.50;1.40;;;;;;;8.77;80.20;99415.84;134264;1298;22484;-74
2023/12/26 13:07:06;;;;;;;1.70;1.30;;;;;;;8.76;80.05;99422.45;134263;1301;22224;-74
2023/12/26 13:10:07;;;;;;;4.30;2.10;;;;;;;8.74;80.14;99421.77;134256;1298;22386;-74
2023/12/26 13:13:12;;;;;;;3.90;1.30;;;;;;;8.69;80.45;99429.09;134273;1298;22424;-74
2023/12/26 13:16:15;;;;;;;3.50;2.00;;;;;;;8.64;80.63;99433.59;134274;1304;23155;-74
2023/12/26 13:19:35;;;;;;;2.40;1.60;;;;;;;8.60;81.00;99438.90;134265;1301;22141;-74
2023/12/26 13:22:42;;;;;;;2.70;1.70;;;;;;;8.59;81.35;99443.40;134058;1299;23320;-75
2023/12/26 13:25:42;;;;;;;4.40;2.10;;;;;;;8.59;81.71;99446.41;134257;1304;22528;-76
2023/12/26 13:28:43;;;;;;;4.30;2.10;;;;;;;8.60;82.02;99457.26;134077;1294;22381;-78
2023/12/26 13:31:49;;;;;;;14.30;5.40;;;;;;;8.61;82.20;99462.90;134298;1304;23176;-75
2023/12/26 13:34:50;;;;;;;7.70;3.70;;;;;;;8.60;82.43;99465.12;134276;1304;22427;-76
2023/12/26 13:37:51;;;;;;;6.90;3.80;;;;;;;8.60;82.67;99465.73;134296;1298;22388;-75
2023/12/26 13:40:51;;;;;;;;;;;;;;;8.59;82.99;99468.83;134280;1301;22485;-75
2023/12/26 13:43:52;;;;;;;4.50;2.10;;;;;;;8.56;83.38;99474.42;134253;1298;23113;-76
2023/12/26 13:46:53;;;;;;;3.30;2.20;;;;;;;8.56;83.49;99476.60;134275;1298;22375;-75
2023/12/26 13:49:55;;;;;;;4.40;2.60;;;;;;;8.56;83.73;99481.52;134222;1304;22347;-75
2023/12/26 13:52:58;;;;;;;5.20;2.20;;;;;;;8.55;84.01;99491.84;134242;1298;22929;-75
2023/12/26 13:56:02;;;;;;;5.30;2.50;;;;;;;8.52;84.15;99492.67;134260;1297;23505;-77
2023/12/26 13:59:03;;;;;;;4.50;2.40;;;;;;;8.50;84.28;99500.95;134241;1298;23633;-78
2023/12/26 14:02:04;;;;;;;;;;;;;;;8.48;84.48;99498.59;134289;1298;22545;-75
2023/12/26 14:05:08;;;;;;;;;;;;;;;8.44;84.73;99505.88;134245;1297;22468;-76
2023/12/26 14:08:27;;;;;;;6.80;2.60;;;;;;;8.39;84.91;99514.83;134253;1298;22487;-75
2023/12/26 14:11:30;;;;;;;3.80;2.00;;;;;;;8.37;85.09;99515.96;134076;1300;22546;-75
2023/12/26 14:14:34;;;;;;;3.30;2.10;;;;;;;8.32;85.34;99521.23;134237;1304;22269;-75
2023/12/26 14:17:35;;;;;;;6.40;2.90;;;;;;;8.28;85.57;99522.52;134236;1298;23112;-75
2023/12/26 14:20:35;;;;;;;;;;;;;;;8.25;85.76;99526.55;134232;1297;22517;-75
2023/12/26 14:23:37;;;;;;;6.00;3.80;;;;;;;8.20;86.01;99531.37;134152;1298;22249;-77
2023/12/26 14:26:37;;;;;;;19.00;10.50;;;;;;;8.15;86.19;99546.38;134264;1298;22383;-75
2023/12/26 14:29:38;;;;;;;;;;;;;;;8.11;86.33;99547.30;134270;1298;22561;-75
2023/12/26 14:32:39;;;;;;;7.30;4.80;;;;;;;8.10;86.71;99552.84;134139;1298;22296;-76
2023/12/26 14:35:43;;;;;;;5.60;3.60;;;;;;;8.09;86.76;99552.74;134243;1301;22997;-76
2023/12/26 14:38:44;;;;;;;5.70;3.50;;;;;;;8.09;86.92;99560.48;134255;1297;22537;-76
2023/12/26 14:41:44;;;;;;;;;;;;;;;8.09;87.09;99553.08;134276;1304;22464;-76
2023/12/26 14:44:45;;;;;;;7.10;5.30;;;;;;;8.11;87.35;99561.63;134258;1297;23288;-78
2023/12/26 14:47:46;;;;;;;13.50;9.40;;;;;;;8.11;87.70;99562.33;134254;1298;22326;-75
2023/12/26 14:50:47;;;;;;;13.40;6.70;;;;;;;8.09;88.21;99569.85;134261;1298;22260;-76
2023/12/26 14:53:48;;;;;;;12.80;6.20;;;;;;;8.05;88.33;99569.39;134247;1298;22372;-77